»·PEaware :: UAL717 KGEG-KSEA

UAL717 :: KGEG-KSEA

FLIGHT INFORMATION

Flight Status: Arrived
Operator:
United Airlines
More flights by this operator :: More flights under this callsign
Pilot: Ty S. (2873)
Aircraft: BOEING 737-300
(B733)
More flights by this aircraft type
Origin: KGEG Spokane Intl
United States
Destination: KSEA Seattle-Tacoma Intl
United States
More flights between these airports :: More routes between these airports
Route: TEMPL GLASR1
File this flight plan on PilotEdge
Remarks:
Altitude:
(Current/Filed)
36,000ft
Speed:
(Current/Filed)
447kts
Departed: 29-Dec-17 05:46 PM
Arrived: 29-Dec-17 06:40 PM
Distance/Time
Traveled:
194nm/0:54
Distance/Time
To Go:
Arrived

Flight Plot

Page will automatically refresh every two minutes.

Flight plan parsing failed; only flown route is shown


Map Options




Map Legend


Flown Route
Filed Route
Departure Airport
Arrival Airport
Navaid (VOR, NDB)
Fix

Horizontal Profiles

Position Reports

Time Latitude Longitude Heading Altitude Ground
Speed
29-Dec-17 17:24 47.625610 -117.534102 279 2391ft 0kts
29-Dec-17 17:25 47.625610 -117.534102 279 2391ft 0kts
29-Dec-17 17:26 47.625610 -117.534102 279 2391ft 0kts
29-Dec-17 17:27 47.625610 -117.534102 279 2391ft 0kts
29-Dec-17 17:28 47.625610 -117.534102 279 2391ft 0kts
29-Dec-17 17:29 47.625610 -117.534102 279 2391ft 0kts
29-Dec-17 17:30 47.625610 -117.534102 279 2391ft 0kts
29-Dec-17 17:31 47.625610 -117.534102 279 2391ft 0kts
29-Dec-17 17:32 47.625610 -117.534102 279 2391ft 0kts
29-Dec-17 17:33 47.625610 -117.534102 279 2391ft 0kts
29-Dec-17 17:34 47.625610 -117.534102 279 2391ft 0kts
29-Dec-17 17:35 47.625610 -117.534102 279 2391ft 0kts
29-Dec-17 17:36 47.625610 -117.534102 279 2391ft 0kts
29-Dec-17 17:37 47.625610 -117.534102 279 2391ft 0kts
29-Dec-17 17:38 47.625610 -117.534102 279 2391ft 0kts
29-Dec-17 17:39 47.625610 -117.534102 279 2391ft 0kts
29-Dec-17 17:40 47.625610 -117.534102 279 2391ft 0kts
29-Dec-17 17:41 47.625610 -117.534102 279 2391ft 0kts
29-Dec-17 17:42 47.625610 -117.534102 279 2391ft 0kts
29-Dec-17 17:43 47.625588 -117.533911 278 2391ft 2kts
29-Dec-17 17:44 47.625896 -117.533448 132 2391ft 2kts
29-Dec-17 17:45 47.625950 -117.533553 130 2391ft 0kts
29-Dec-17 17:46 47.625950 -117.533553 130 2391ft 0kts
29-Dec-17 17:47 47.625196 -117.532579 138 2391ft 0kts
29-Dec-17 17:48 47.622749 -117.535092 230 2391ft 22kts
29-Dec-17 17:49 47.618206 -117.541878 224 2391ft 25kts
29-Dec-17 17:50 47.613134 -117.549514 224 2391ft 24kts
29-Dec-17 17:51 47.610916 -117.551175 137 2391ft 8kts
29-Dec-17 17:52 47.613344 -117.545159 45 2391ft 80kts
29-Dec-17 17:53 47.646944 -117.500647 38 3626ft 215kts
29-Dec-17 17:54 47.698923 -117.436051 38 5612ft 260kts
29-Dec-17 17:55 47.754704 -117.362680 35 8062ft 281kts
29-Dec-17 17:56 47.814346 -117.282675 39 10397ft 325kts
29-Dec-17 17:57 47.898225 -117.260088 320 12737ft 331kts
29-Dec-17 17:58 47.918714 -117.377627 262 16134ft 312kts
29-Dec-17 17:59 47.908267 -117.505586 262 19266ft 317kts
29-Dec-17 18:00 47.897652 -117.636262 262 22062ft 322kts
29-Dec-17 18:01 47.887241 -117.763211 262 24515ft 328kts
29-Dec-17 18:02 47.875925 -117.899034 262 26837ft 334kts
29-Dec-17 18:03 47.864248 -118.037129 262 28936ft 340kts
29-Dec-17 18:04 47.852658 -118.172233 262 31729ft 320kts
29-Dec-17 18:05 47.841459 -118.300967 262 33824ft 309kts
29-Dec-17 18:06 47.830447 -118.425916 262 35398ft 306kts
29-Dec-17 18:07 47.819108 -118.552987 263 35938ft 319kts
29-Dec-17 18:08 47.808097 -118.674987 262 35966ft 322kts
29-Dec-17 18:09 47.796132 -118.805999 262 36007ft 320kts
29-Dec-17 18:10 47.784035 -118.936578 261 36010ft 319kts
29-Dec-17 18:11 47.771633 -119.066360 260 36010ft 318kts
29-Dec-17 18:12 47.758883 -119.196029 260 36004ft 318kts
29-Dec-17 18:13 47.746000 -119.326266 260 36001ft 318kts
29-Dec-17 18:14 47.733095 -119.455241 260 35952ft 318kts
29-Dec-17 18:15 47.738010 -119.587337 271 35896ft 325kts
29-Dec-17 18:16 47.748279 -119.715205 270 34002ft 321kts
29-Dec-17 18:17 47.758589 -119.846441 271 32054ft 331kts
29-Dec-17 18:18 47.769234 -119.983680 271 30069ft 334kts
29-Dec-17 18:19 47.779531 -120.118673 271 28067ft 325kts
29-Dec-17 18:20 47.788926 -120.250375 271 26070ft 318kts
29-Dec-17 18:21 47.798382 -120.379596 271 24362ft 312kts
29-Dec-17 18:22 47.807604 -120.506667 271 22866ft 308kts
29-Dec-17 18:23 47.816586 -120.632294 271 21365ft 303kts
29-Dec-17 18:24 47.823210 -120.726221 270 20211ft 299kts
29-Dec-17 18:25 47.831428 -120.848496 270 18717ft 296kts
29-Dec-17 18:26 47.839519 -120.969567 271 17218ft 292kts
29-Dec-17 18:27 47.847598 -121.089893 270 15724ft 295kts
29-Dec-17 18:28 47.855583 -121.211554 269 14230ft 298kts
29-Dec-17 18:29 47.863331 -121.333197 270 12737ft 294kts
29-Dec-17 18:30 47.871031 -121.453496 270 12007ft 289kts
29-Dec-17 18:31 47.877761 -121.561934 269 12018ft 258kts
29-Dec-17 18:32 47.884138 -121.665924 269 12002ft 259kts
29-Dec-17 18:33 47.851887 -121.750213 223 11499ft 251kts
29-Dec-17 18:34 47.806999 -121.826042 252 10161ft 256kts
29-Dec-17 18:35 47.796413 -121.932960 255 8672ft 265kts
29-Dec-17 18:36 47.786396 -122.042911 255 7176ft 271kts
29-Dec-17 18:37 47.775308 -122.154062 255 5683ft 272kts
29-Dec-17 18:38 47.762475 -122.256251 232 4992ft 225kts
29-Dec-17 18:39 47.712020 -122.279702 190 4066ft 182kts
29-Dec-17 18:40 47.664940 -122.299646 195 4035ft 179kts
29-Dec-17 18:41 47.616121 -122.307290 177 3518ft 178kts
29-Dec-17 18:42 47.570001 -122.306852 178 2590ft 129kts
29-Dec-17 18:43 47.535314 -122.307076 178 1878ft 125kts
29-Dec-17 18:44 47.500331 -122.307230 179 1215ft 127kts
29-Dec-17 18:45 47.466123 -122.307709 179 524ft 115kts
29-Dec-17 18:46 47.452231 -122.306869 138 440ft 1kts
29-Dec-17 18:47 47.449254 -122.306240 178 440ft 24kts

Navigation Log

Ident Type
Flight plan parsing failed, navigation log unavailable